createdAt,value
2022-09-30T00:03:59.275Z,3.20
2022-09-30T00:09:03.588Z,3.45
2022-09-30T00:14:13.455Z,3.75
2022-09-30T00:19:18.793Z,2.83
2022-09-30T00:24:21.385Z,3.95
2022-09-30T00:29:24.733Z,4.37
2022-09-30T00:34:27.225Z,4.20
2022-09-30T00:39:37.663Z,5.13
2022-09-30T00:44:52.088Z,4.38
2022-09-30T00:49:58.657Z,3.43
2022-09-30T00:55:08.327Z,3.85
2022-09-30T01:00:11.012Z,3.90
2022-09-30T01:05:13.737Z,3.57
2022-09-30T01:10:16.343Z,3.50
2022-09-30T01:15:24.683Z,3.55
2022-09-30T01:21:13.541Z,3.67
2022-09-30T01:26:49.447Z,3.72
2022-09-30T01:32:23.391Z,4.00
2022-09-30T01:37:59.910Z,3.53
2022-09-30T01:43:17.793Z,3.47
2022-09-30T01:48:56.571Z,3.63
2022-09-30T01:54:10.058Z,3.50
2022-09-30T01:59:25.600Z,4.22
2022-09-30T02:04:43.565Z,3.80
2022-09-30T02:10:01.793Z,3.45
2022-09-30T02:15:19.929Z,3.78
2022-09-30T02:20:35.778Z,3.70
2022-09-30T02:26:30.004Z,3.43
2022-09-30T02:31:35.929Z,3.53
2022-09-30T02:36:44.992Z,3.70
2022-09-30T02:41:57.823Z,3.60
2022-09-30T02:47:15.670Z,3.38
2022-09-30T02:53:05.288Z,3.55
2022-09-30T02:58:20.058Z,3.80
2022-09-30T03:03:28.234Z,4.25
2022-09-30T03:08:30.873Z,3.73
2022-09-30T03:13:38.254Z,4.47
2022-09-30T03:19:24.758Z,3.60
2022-09-30T03:24:50.338Z,3.78
2022-09-30T03:30:09.731Z,4.47
2022-09-30T03:35:15.059Z,4.50
2022-09-30T03:40:28.653Z,3.72
2022-09-30T03:45:51.226Z,4.13
2022-09-30T03:50:55.050Z,4.32
2022-09-30T03:55:57.493Z,5.00
2022-09-30T04:01:00.028Z,4.75
2022-09-30T04:06:03.334Z,5.20
2022-09-30T04:11:06.418Z,4.93
2022-09-30T04:16:10.195Z,3.95
2022-09-30T04:21:15.313Z,4.15
2022-09-30T04:26:20.190Z,4.17
2022-09-30T04:31:32.864Z,4.43
2022-09-30T04:36:36.392Z,4.60
2022-09-30T04:41:43.296Z,4.13
2022-09-30T04:46:45.749Z,4.40
2022-09-30T04:51:48.281Z,4.47
2022-09-30T04:56:50.886Z,5.00
2022-09-30T05:01:53.652Z,5.50
2022-09-30T05:07:14.951Z,6.30
2022-09-30T05:12:17.497Z,6.68
2022-09-30T05:17:20.123Z,6.60
2022-09-30T05:22:24.827Z,6.83
2022-09-30T05:27:32.075Z,7.07
2022-09-30T05:32:34.801Z,6.90
2022-09-30T05:38:41.681Z,7.60
2022-09-30T05:44:02.165Z,6.55
2022-09-30T05:49:04.702Z,6.55
2022-09-30T05:54:07.409Z,7.57
2022-09-30T05:59:15.509Z,7.80
2022-09-30T06:04:19.764Z,9.43
2022-09-30T06:09:24.660Z,7.97
2022-09-30T06:14:28.916Z,9.38
2022-09-30T06:19:35.808Z,7.07
2022-09-30T06:24:41.189Z,7.83
2022-09-30T06:29:48.944Z,8.43
2022-09-30T06:34:55.814Z,7.40
2022-09-30T06:39:58.373Z,9.00
2022-09-30T06:45:01.233Z,6.88
2022-09-30T06:50:04.396Z,6.40
2022-09-30T06:55:17.226Z,6.03
2022-09-30T07:00:22.655Z,5.90
2022-09-30T07:05:26.548Z,5.47
2022-09-30T07:10:34.835Z,5.77
2022-09-30T07:15:38.232Z,5.95
2022-09-30T08:22:35.485Z,6.07
2022-09-30T08:27:40.157Z,5.53
2022-09-30T08:32:44.271Z,5.30
2022-09-30T08:37:46.963Z,5.55
2022-09-30T08:43:09.288Z,5.07
2022-09-30T08:48:53.621Z,4.82
2022-09-30T08:54:03.052Z,5.10
2022-09-30T08:59:15.869Z,4.28
2022-09-30T09:04:20.820Z,4.72
2022-09-30T09:09:26.348Z,4.82
2022-09-30T09:14:59.802Z,4.78
2022-09-30T09:20:13.508Z,4.67
2022-09-30T09:25:27.062Z,4.93
2022-09-30T09:30:45.038Z,4.90
2022-09-30T09:36:21.564Z,5.00
2022-09-30T09:41:42.389Z,4.55
2022-09-30T09:46:50.229Z,5.57
2022-09-30T09:52:21.565Z,4.60
2022-09-30T09:57:32.481Z,4.10
2022-09-30T10:02:35.121Z,4.15
2022-09-30T10:07:38.483Z,4.23
2022-09-30T10:12:41.983Z,4.55
2022-09-30T10:17:53.830Z,4.63
2022-09-30T10:23:10.560Z,4.47
2022-09-30T10:28:31.692Z,4.50
2022-09-30T10:33:42.532Z,5.57
2022-09-30T10:39:00.007Z,4.70
2022-09-30T10:44:15.771Z,5.82
2022-09-30T10:49:47.105Z,5.72
2022-09-30T10:55:02.284Z,5.75
2022-09-30T11:00:17.451Z,4.93
2022-09-30T11:05:47.249Z,5.43
2022-09-30T11:11:10.629Z,5.07
2022-09-30T11:16:27.375Z,5.18
2022-09-30T11:21:42.866Z,4.95
2022-09-30T11:27:11.944Z,4.80
2022-09-30T11:32:35.808Z,5.00
2022-09-30T11:38:05.779Z,5.60
2022-09-30T11:43:34.808Z,3.63
2022-09-30T11:48:51.004Z,3.23
2022-09-30T11:53:59.378Z,3.70
2022-09-30T11:59:14.072Z,4.00
2022-09-30T12:04:32.250Z,3.60
2022-09-30T12:09:40.865Z,4.07
2022-09-30T12:14:51.853Z,4.57
2022-09-30T12:20:03.092Z,4.13
2022-09-30T12:25:18.324Z,4.20
2022-09-30T12:30:34.293Z,4.72
2022-09-30T12:35:39.469Z,4.20
2022-09-30T12:41:02.775Z,4.40
2022-09-30T12:52:33.920Z,6.10
2022-09-30T12:57:43.604Z,4.75
2022-09-30T13:02:55.793Z,4.10
2022-09-30T13:08:04.950Z,4.63
2022-09-30T13:13:10.260Z,4.60
2022-09-30T13:18:26.918Z,3.40
2022-09-30T13:23:45.985Z,3.25
2022-09-30T13:28:50.738Z,3.30
2022-09-30T13:34:02.115Z,2.95
2022-09-30T13:39:25.331Z,2.65
2022-09-30T13:44:59.654Z,2.53
2022-09-30T13:50:27.860Z,2.23
2022-09-30T13:55:50.109Z,2.55
2022-09-30T14:01:01.670Z,2.45
2022-09-30T14:06:10.457Z,2.70
2022-09-30T14:11:37.468Z,2.70
2022-09-30T14:17:09.074Z,2.55
2022-09-30T14:22:15.539Z,2.75
2022-09-30T14:27:20.024Z,2.42
2022-09-30T14:32:37.481Z,2.50
2022-09-30T14:37:48.909Z,2.83
2022-09-30T14:42:58.302Z,3.25
2022-09-30T14:48:07.410Z,4.03
2022-09-30T14:53:50.199Z,3.00
2022-09-30T14:58:53.130Z,3.58
2022-09-30T15:04:03.569Z,4.00
2022-09-30T15:09:16.173Z,4.05
2022-09-30T15:14:26.671Z,4.10
2022-09-30T15:19:43.222Z,4.10
2022-09-30T15:24:47.866Z,4.10
2022-09-30T15:30:04.134Z,4.03
2022-09-30T15:35:17.177Z,4.10
2022-09-30T15:40:43.951Z,4.30
2022-09-30T15:45:48.700Z,4.53
2022-09-30T15:51:01.659Z,4.57
2022-09-30T15:56:22.360Z,4.63
2022-09-30T16:01:36.034Z,5.03
2022-09-30T16:06:52.818Z,4.20
2022-09-30T16:12:18.340Z,4.80
2022-09-30T16:17:38.793Z,4.93
2022-09-30T16:22:41.548Z,4.87
2022-09-30T16:27:45.368Z,4.13
2022-09-30T16:32:52.076Z,4.03
2022-09-30T16:38:12.410Z,4.15
2022-09-30T16:43:15.084Z,4.47
2022-09-30T16:48:28.154Z,4.47
2022-09-30T16:53:34.167Z,4.32
2022-09-30T16:58:36.677Z,4.70
2022-09-30T17:03:42.009Z,4.95
2022-09-30T17:08:45.536Z,4.63
2022-09-30T17:13:48.046Z,4.97
2022-09-30T17:18:54.332Z,4.78
2022-09-30T17:23:58.078Z,5.00
2022-09-30T17:29:21.242Z,5.60
2022-09-30T17:34:28.106Z,5.82
2022-09-30T17:39:30.660Z,5.10
2022-09-30T17:44:33.451Z,5.10
2022-09-30T17:54:53.358Z,7.10
2022-09-30T17:59:58.966Z,6.90
2022-09-30T18:05:01.697Z,6.35
2022-09-30T18:10:04.680Z,6.45
2022-09-30T18:15:11.660Z,6.18
2022-09-30T18:20:14.802Z,6.10
2022-09-30T18:25:20.830Z,7.07
2022-09-30T18:30:24.427Z,8.00
2022-09-30T18:35:27.352Z,8.97
2022-09-30T18:40:31.842Z,9.20
2022-09-30T18:45:40.879Z,7.63
2022-09-30T18:50:46.690Z,8.25
2022-09-30T18:55:49.325Z,9.30
2022-09-30T19:00:52.026Z,10.10
2022-09-30T19:05:58.960Z,9.43
2022-09-30T19:11:18.263Z,8.67
2022-09-30T19:16:36.578Z,8.57
2022-09-30T19:21:41.373Z,8.68
2022-09-30T19:26:44.056Z,9.63
2022-09-30T19:31:46.780Z,9.13
2022-09-30T19:36:52.807Z,9.07
2022-09-30T19:42:01.700Z,8.43
2022-09-30T19:47:16.707Z,8.32
2022-09-30T19:52:22.304Z,8.02
2022-09-30T19:57:25.640Z,8.23
2022-09-30T20:02:28.348Z,9.53
2022-09-30T20:07:30.984Z,9.57
2022-09-30T20:12:45.439Z,8.00
2022-09-30T20:17:50.312Z,7.82
2022-09-30T20:22:53.855Z,7.65
2022-09-30T20:27:56.460Z,7.18
2022-09-30T20:34:02.812Z,6.85
2022-09-30T20:39:10.785Z,6.55
2022-09-30T20:44:13.785Z,5.50
2022-09-30T20:49:18.248Z,5.20
2022-09-30T20:54:20.983Z,4.87
2022-09-30T20:59:26.310Z,4.57
2022-09-30T21:04:28.948Z,4.30
2022-09-30T21:09:36.672Z,4.68
2022-09-30T21:14:40.249Z,5.28
2022-09-30T21:19:43.501Z,4.43
2022-09-30T21:24:47.943Z,4.50
2022-09-30T21:29:50.500Z,5.10
2022-09-30T21:34:54.377Z,5.05
2022-09-30T21:39:57.821Z,5.68
2022-09-30T21:45:01.287Z,6.37
2022-09-30T21:50:15.554Z,6.90
2022-09-30T21:55:19.084Z,7.18
2022-09-30T22:00:22.284Z,6.97
2022-09-30T22:05:25.023Z,7.13
2022-09-30T22:10:27.656Z,7.90
2022-09-30T22:15:35.014Z,7.10
2022-09-30T22:20:37.652Z,8.00
2022-09-30T22:25:41.812Z,7.07
2022-09-30T22:30:46.181Z,7.93
2022-09-30T22:36:10.305Z,7.57
2022-09-30T22:41:16.449Z,8.07
2022-09-30T22:46:21.932Z,8.02
2022-09-30T22:51:25.643Z,7.63
2022-09-30T22:56:28.264Z,7.43
2022-09-30T23:01:40.479Z,7.40
2022-09-30T23:06:56.410Z,8.25
2022-09-30T23:12:01.985Z,6.80
2022-09-30T23:17:17.071Z,3.97
2022-09-30T23:22:20.011Z,3.67
2022-09-30T23:32:26.763Z,3.42
2022-09-30T23:37:40.960Z,3.15
2022-09-30T23:42:43.395Z,3.33
2022-09-30T23:47:48.625Z,2.85
2022-09-30T23:52:51.743Z,2.43
2022-09-30T23:57:57.630Z,2.83
